WMT1MS LIMC-EGGW
Flight info
| Callsign | WMT1MS |
|---|---|
| Flight time | 1h 24m |
| Altitude | 36000 |
| Route | AOSTA DCT ORSUD DCT MOLUS DCT UNKIR DCT DJL DCT BRY DCT CLM DCT KOPOR DCT SOSUN DCT SUBIP UM733 UNDUG |
| Aircraft | A321/M-SDE3FGHIRWY/LB1 |
Departure
| Time | 2026-05-04 18:15 |
|---|---|
| Airport | Milan Malpensa International Airport (LIMC) |
Arrival
| Time | 2026-05-04 19:39 |
|---|---|
| Airport | London Luton Airport (EGGW) |
| Time | Latitude | Longitude | Altitude | Speed | Heading |
|---|---|---|---|---|---|
| 2026-05-04 17:40 | 45.62725 | 8.71689 | 740 ft | 0 kts | 331° |
| 2026-05-04 17:45 | 45.62724 | 8.71689 | 740 ft | 0 kts | 331° |
| 2026-05-04 18:04 | 45.62713 | 8.71699 | 740 ft | 4 kts | 330° |
| 2026-05-04 18:04 | 45.62689 | 8.71718 | 740 ft | 4 kts | 328° |
| 2026-05-04 18:04 | 45.62648 | 8.71738 | 741 ft | 4 kts | 36° |
| 2026-05-04 18:05 | 45.62637 | 8.71722 | 739 ft | 4 kts | 69° |
| 2026-05-04 18:05 | 45.62634 | 8.71708 | 740 ft | 0 kts | 79° |
| 2026-05-04 18:07 | 45.62636 | 8.71725 | 741 ft | 5 kts | 79° |
| 2026-05-04 18:07 | 45.62648 | 8.71812 | 741 ft | 13 kts | 79° |
| 2026-05-04 18:08 | 45.62667 | 8.71956 | 741 ft | 14 kts | 79° |
| 2026-05-04 18:08 | 45.62682 | 8.72083 | 741 ft | 12 kts | 89° |
| 2026-05-04 18:08 | 45.62634 | 8.72146 | 740 ft | 9 kts | 165° |
| 2026-05-04 18:08 | 45.62576 | 8.72163 | 741 ft | 8 kts | 171° |
| 2026-05-04 18:09 | 45.62452 | 8.72196 | 741 ft | 12 kts | 168° |
| 2026-05-04 18:09 | 45.62252 | 8.72254 | 741 ft | 17 kts | 156° |
| 2026-05-04 18:10 | 45.62234 | 8.72406 | 741 ft | 18 kts | 79° |
| 2026-05-04 18:10 | 45.62256 | 8.72568 | 740 ft | 15 kts | 79° |
| 2026-05-04 18:10 | 45.62273 | 8.72701 | 741 ft | 12 kts | 80° |
| 2026-05-04 18:10 | 45.62289 | 8.72810 | 741 ft | 10 kts | 78° |
| 2026-05-04 18:11 | 45.62301 | 8.72903 | 741 ft | 10 kts | 79° |
| 2026-05-04 18:11 | 45.62300 | 8.72996 | 741 ft | 10 kts | 117° |
| 2026-05-04 18:11 | 45.62234 | 8.73038 | 741 ft | 13 kts | 168° |
| 2026-05-04 18:11 | 45.62140 | 8.73064 | 740 ft | 15 kts | 169° |
| 2026-05-04 18:12 | 45.62026 | 8.73095 | 741 ft | 18 kts | 169° |
| 2026-05-04 18:12 | 45.61902 | 8.73130 | 739 ft | 18 kts | 169° |
| 2026-05-04 18:12 | 45.61776 | 8.73168 | 741 ft | 19 kts | 159° |
| 2026-05-04 18:12 | 45.61691 | 8.73310 | 741 ft | 19 kts | 123° |
| 2026-05-04 18:13 | 45.61615 | 8.73473 | 741 ft | 20 kts | 123° |
| 2026-05-04 18:13 | 45.61590 | 8.73658 | 740 ft | 17 kts | 79° |
| 2026-05-04 18:13 | 45.61776 | 8.73694 | 740 ft | 56 kts | 349° |
| 2026-05-04 18:14 | 45.62396 | 8.73519 | 743 ft | 122 kts | 349° |
| 2026-05-04 18:14 | 45.63413 | 8.73238 | 743 ft | 172 kts | 348° |
| 2026-05-04 18:14 | 45.64609 | 8.72912 | 1323 ft | 174 kts | 349° |
| 2026-05-04 18:15 | 45.67008 | 8.72590 | 2675 ft | 176 kts | 0° |
| 2026-05-04 18:15 | 45.69520 | 8.72591 | 3654 ft | 184 kts | 359° |
| 2026-05-04 18:15 | 45.70814 | 8.72573 | 4095 ft | 192 kts | 359° |
| 2026-05-04 18:16 | 45.72156 | 8.72076 | 4287 ft | 213 kts | 324° |
| 2026-05-04 18:16 | 45.73022 | 8.70304 | 4507 ft | 230 kts | 283° |
| 2026-05-04 18:16 | 45.72944 | 8.67990 | 4970 ft | 237 kts | 257° |
| 2026-05-04 18:17 | 45.72127 | 8.63384 | 6028 ft | 241 kts | 253° |
| 2026-05-04 18:17 | 45.71686 | 8.61059 | 6620 ft | 241 kts | 250° |
| 2026-05-04 18:17 | 45.69992 | 8.56759 | 7354 ft | 269 kts | 235° |
| 2026-05-04 18:18 | 45.68970 | 8.54474 | 8037 ft | 273 kts | 235° |
| 2026-05-04 18:18 | 45.67945 | 8.52167 | 8822 ft | 275 kts | 234° |
| 2026-05-04 18:18 | 45.66918 | 8.49855 | 9594 ft | 277 kts | 234° |
| 2026-05-04 18:18 | 45.65879 | 8.47521 | 10303 ft | 281 kts | 234° |
| 2026-05-04 18:19 | 45.63594 | 8.42428 | 10612 ft | 327 kts | 234° |
| 2026-05-04 18:19 | 45.62245 | 8.39698 | 10727 ft | 345 kts | 228° |
| 2026-05-04 18:19 | 45.60708 | 8.36985 | 11163 ft | 355 kts | 233° |
| 2026-05-04 18:20 | 45.59532 | 8.33848 | 11775 ft | 362 kts | 246° |
| 2026-05-04 18:20 | 45.58898 | 8.30377 | 12426 ft | 368 kts | 260° |
| 2026-05-04 18:20 | 45.58858 | 8.26705 | 13109 ft | 374 kts | 274° |
| 2026-05-04 18:20 | 45.59419 | 8.23056 | 13798 ft | 379 kts | 283° |
| 2026-05-04 18:21 | 45.60193 | 8.19452 | 14423 ft | 382 kts | 285° |
| 2026-05-04 18:21 | 45.61039 | 8.15830 | 14996 ft | 385 kts | 286° |
| 2026-05-04 18:21 | 45.61920 | 8.12187 | 15599 ft | 388 kts | 286° |
| 2026-05-04 18:21 | 45.62809 | 8.08533 | 16203 ft | 391 kts | 286° |
| 2026-05-04 18:22 | 45.63688 | 8.04862 | 16773 ft | 394 kts | 285° |
| 2026-05-04 18:22 | 45.64562 | 8.01140 | 17385 ft | 396 kts | 285° |
| 2026-05-04 18:22 | 45.65424 | 7.97404 | 17976 ft | 398 kts | 285° |
| 2026-05-04 18:22 | 45.66294 | 7.93597 | 18453 ft | 401 kts | 285° |
| 2026-05-04 18:23 | 45.67161 | 7.89790 | 18914 ft | 404 kts | 285° |
| 2026-05-04 18:23 | 45.68030 | 7.85964 | 19386 ft | 407 kts | 285° |
| 2026-05-04 18:23 | 45.68911 | 7.82088 | 19851 ft | 410 kts | 284° |
| 2026-05-04 18:23 | 45.69794 | 7.78208 | 20314 ft | 412 kts | 284° |
| 2026-05-04 18:24 | 45.70683 | 7.74303 | 20698 ft | 416 kts | 284° |
| 2026-05-04 18:24 | 45.71587 | 7.70346 | 21159 ft | 418 kts | 284° |
| 2026-05-04 18:24 | 45.72490 | 7.66371 | 21600 ft | 421 kts | 284° |
| 2026-05-04 18:24 | 45.73397 | 7.62370 | 21909 ft | 422 kts | 284° |
| 2026-05-04 18:25 | 45.74302 | 7.58362 | 22279 ft | 425 kts | 284° |
| 2026-05-04 18:25 | 45.75211 | 7.54313 | 22690 ft | 428 kts | 284° |
| 2026-05-04 18:25 | 45.76117 | 7.50272 | 23086 ft | 431 kts | 284° |
| 2026-05-04 18:25 | 45.77039 | 7.46172 | 23490 ft | 434 kts | 284° |
| 2026-05-04 18:26 | 45.77975 | 7.42038 | 23860 ft | 438 kts | 285° |
| 2026-05-04 18:26 | 45.79217 | 7.38014 | 24173 ft | 446 kts | 295° |
| 2026-05-04 18:26 | 45.80972 | 7.34304 | 24508 ft | 453 kts | 306° |
| 2026-05-04 18:26 | 45.83197 | 7.31067 | 24840 ft | 460 kts | 316° |
| 2026-05-04 18:27 | 45.85787 | 7.28329 | 25142 ft | 465 kts | 321° |
| 2026-05-04 18:27 | 45.88442 | 7.25645 | 25456 ft | 467 kts | 321° |
| 2026-05-04 18:27 | 45.91088 | 7.22967 | 25781 ft | 469 kts | 321° |
| 2026-05-04 18:27 | 45.93766 | 7.20246 | 26091 ft | 471 kts | 321° |
| 2026-05-04 18:28 | 45.96442 | 7.17514 | 26388 ft | 473 kts | 321° |
| 2026-05-04 18:28 | 45.99133 | 7.14758 | 26655 ft | 476 kts | 321° |
| 2026-05-04 18:28 | 46.01840 | 7.11979 | 27008 ft | 477 kts | 320° |
| 2026-05-04 18:28 | 46.04553 | 7.09192 | 27326 ft | 479 kts | 320° |
| 2026-05-04 18:29 | 46.07265 | 7.06401 | 27662 ft | 480 kts | 320° |
| 2026-05-04 18:29 | 46.09986 | 7.03603 | 28109 ft | 479 kts | 320° |
| 2026-05-04 18:29 | 46.12698 | 7.00818 | 28539 ft | 478 kts | 320° |
| 2026-05-04 18:29 | 46.15369 | 6.98075 | 28928 ft | 477 kts | 320° |
| 2026-05-04 18:30 | 46.20799 | 6.92476 | 29484 ft | 477 kts | 320° |
| 2026-05-04 18:30 | 46.23503 | 6.89675 | 29915 ft | 476 kts | 320° |
| 2026-05-04 18:30 | 46.26181 | 6.86901 | 30338 ft | 475 kts | 320° |
| 2026-05-04 18:31 | 46.28832 | 6.84152 | 30736 ft | 473 kts | 320° |
| 2026-05-04 18:31 | 46.31544 | 6.81341 | 31200 ft | 470 kts | 320° |
| 2026-05-04 18:31 | 46.34183 | 6.78603 | 31579 ft | 469 kts | 319° |
| 2026-05-04 18:31 | 46.36823 | 6.75859 | 31886 ft | 468 kts | 319° |
| 2026-05-04 18:32 | 46.39460 | 6.73108 | 32265 ft | 467 kts | 319° |
| 2026-05-04 18:32 | 46.42049 | 6.70279 | 32642 ft | 462 kts | 314° |
| 2026-05-04 18:32 | 46.44281 | 6.67072 | 33005 ft | 454 kts | 305° |
| 2026-05-04 18:32 | 46.46175 | 6.63397 | 33393 ft | 446 kts | 296° |
| 2026-05-04 18:33 | 46.47709 | 6.59587 | 33781 ft | 442 kts | 294° |
| 2026-05-04 18:33 | 46.49233 | 6.55730 | 34162 ft | 439 kts | 294° |
| 2026-05-04 18:33 | 46.50755 | 6.51882 | 34472 ft | 438 kts | 295° |
| 2026-05-04 18:33 | 46.52274 | 6.48039 | 34752 ft | 437 kts | 295° |
| 2026-05-04 18:34 | 46.53783 | 6.44215 | 35041 ft | 437 kts | 294° |
| 2026-05-04 18:34 | 46.55299 | 6.40357 | 35239 ft | 438 kts | 294° |
| 2026-05-04 18:34 | 46.56803 | 6.36519 | 35484 ft | 439 kts | 294° |
| 2026-05-04 18:34 | 46.58313 | 6.32663 | 35746 ft | 438 kts | 294° |
| 2026-05-04 18:35 | 46.59822 | 6.28808 | 35967 ft | 439 kts | 295° |
| 2026-05-04 18:35 | 46.62851 | 6.21078 | 36042 ft | 438 kts | 295° |
| 2026-05-04 18:36 | 46.65854 | 6.13377 | 36032 ft | 438 kts | 294° |
| 2026-05-04 18:36 | 46.68863 | 6.05617 | 36034 ft | 439 kts | 294° |
| 2026-05-04 18:37 | 46.71848 | 5.97915 | 36023 ft | 439 kts | 294° |
| 2026-05-04 18:37 | 46.74851 | 5.90148 | 36026 ft | 439 kts | 294° |
| 2026-05-04 18:38 | 46.77847 | 5.82371 | 36023 ft | 440 kts | 294° |
| 2026-05-04 18:38 | 46.80895 | 5.74618 | 36025 ft | 443 kts | 299° |
| 2026-05-04 18:39 | 46.85093 | 5.67844 | 36043 ft | 453 kts | 311° |
| 2026-05-04 18:39 | 46.89687 | 5.61574 | 36008 ft | 453 kts | 311° |
| 2026-05-04 18:40 | 46.94296 | 5.55256 | 35996 ft | 454 kts | 311° |
| 2026-05-04 18:40 | 46.98895 | 5.48918 | 35990 ft | 454 kts | 311° |
| 2026-05-04 18:41 | 47.03487 | 5.42574 | 35989 ft | 454 kts | 311° |
| 2026-05-04 18:41 | 47.08059 | 5.36233 | 35993 ft | 455 kts | 311° |
| 2026-05-04 18:42 | 47.11899 | 5.30903 | 36021 ft | 455 kts | 312° |
| 2026-05-04 18:42 | 47.16516 | 5.24491 | 35989 ft | 456 kts | 312° |
| 2026-05-04 18:43 | 47.21119 | 5.18076 | 35986 ft | 457 kts | 311° |
| 2026-05-04 18:43 | 47.25728 | 5.11623 | 35983 ft | 457 kts | 312° |
| 2026-05-04 18:44 | 47.30267 | 5.05065 | 35988 ft | 456 kts | 309° |
| 2026-05-04 18:44 | 47.34600 | 4.98337 | 35988 ft | 456 kts | 308° |
| 2026-05-04 18:45 | 47.38945 | 4.91497 | 36003 ft | 456 kts | 309° |
| 2026-05-04 18:45 | 47.43370 | 4.84608 | 35998 ft | 456 kts | 309° |
| 2026-05-04 18:46 | 47.47710 | 4.77914 | 35996 ft | 456 kts | 309° |
| 2026-05-04 18:46 | 47.52090 | 4.71126 | 36002 ft | 457 kts | 309° |
| 2026-05-04 18:47 | 47.56462 | 4.64309 | 35989 ft | 457 kts | 309° |
| 2026-05-04 18:47 | 47.60839 | 4.57465 | 36011 ft | 457 kts | 309° |
| 2026-05-04 18:48 | 47.65213 | 4.50631 | 35984 ft | 457 kts | 309° |
| 2026-05-04 18:48 | 47.69573 | 4.43793 | 35982 ft | 457 kts | 309° |
| 2026-05-04 18:49 | 47.73932 | 4.36922 | 35970 ft | 457 kts | 309° |
| 2026-05-04 18:49 | 47.78295 | 4.30031 | 35966 ft | 457 kts | 309° |
| 2026-05-04 18:50 | 47.82648 | 4.23132 | 35969 ft | 457 kts | 309° |
| 2026-05-04 18:50 | 47.87006 | 4.16208 | 35973 ft | 458 kts | 309° |
| 2026-05-04 18:51 | 47.91354 | 4.09289 | 35969 ft | 458 kts | 309° |
| 2026-05-04 18:51 | 47.95722 | 4.02333 | 35968 ft | 458 kts | 309° |
| 2026-05-04 18:52 | 48.00074 | 3.95366 | 35966 ft | 459 kts | 309° |
| 2026-05-04 18:52 | 48.04421 | 3.88384 | 35963 ft | 459 kts | 309° |
| 2026-05-04 18:53 | 48.08754 | 3.81439 | 35965 ft | 459 kts | 309° |
| 2026-05-04 18:53 | 48.13103 | 3.74441 | 35960 ft | 459 kts | 309° |
| 2026-05-04 18:54 | 48.17448 | 3.67418 | 35958 ft | 459 kts | 308° |
| 2026-05-04 18:54 | 48.21784 | 3.60369 | 35957 ft | 459 kts | 308° |
| 2026-05-04 18:55 | 48.26114 | 3.53317 | 35959 ft | 459 kts | 308° |
| 2026-05-04 18:55 | 48.32616 | 3.42730 | 35980 ft | 459 kts | 308° |
| 2026-05-04 18:56 | 48.36932 | 3.35659 | 35969 ft | 458 kts | 308° |
| 2026-05-04 18:56 | 48.41728 | 3.29299 | 35969 ft | 466 kts | 324° |
| 2026-05-04 18:57 | 48.47619 | 3.25082 | 35963 ft | 471 kts | 334° |
| 2026-05-04 18:57 | 48.53608 | 3.21285 | 35960 ft | 471 kts | 333° |
| 2026-05-04 18:58 | 48.59630 | 3.17408 | 35962 ft | 471 kts | 333° |
| 2026-05-04 18:58 | 48.65701 | 3.13502 | 35969 ft | 471 kts | 333° |
| 2026-05-04 18:59 | 48.71692 | 3.09649 | 35963 ft | 471 kts | 333° |
| 2026-05-04 18:59 | 48.77715 | 3.05763 | 35961 ft | 471 kts | 333° |
| 2026-05-04 19:00 | 48.83738 | 3.01848 | 35975 ft | 470 kts | 331° |
| 2026-05-04 19:00 | 48.89418 | 2.97072 | 35967 ft | 466 kts | 326° |
| 2026-05-04 19:01 | 48.95043 | 2.92157 | 35962 ft | 466 kts | 326° |
| 2026-05-04 19:01 | 49.00746 | 2.87162 | 35960 ft | 467 kts | 326° |
| 2026-05-04 19:02 | 49.06389 | 2.82214 | 35965 ft | 466 kts | 326° |
| 2026-05-04 19:02 | 49.11922 | 2.77334 | 35971 ft | 466 kts | 326° |
| 2026-05-04 19:03 | 49.17525 | 2.72369 | 35954 ft | 465 kts | 326° |
| 2026-05-04 19:03 | 49.23129 | 2.67405 | 35962 ft | 465 kts | 326° |
| 2026-05-04 19:04 | 49.28727 | 2.62440 | 35963 ft | 465 kts | 326° |
| 2026-05-04 19:04 | 49.34331 | 2.57452 | 35970 ft | 464 kts | 326° |
| 2026-05-04 19:05 | 49.39907 | 2.52458 | 35970 ft | 463 kts | 324° |
| 2026-05-04 19:05 | 49.42417 | 2.49435 | 35974 ft | 456 kts | 310° |
| 2026-05-04 19:05 | 49.44555 | 2.45870 | 35978 ft | 454 kts | 308° |
| 2026-05-04 19:06 | 49.48783 | 2.38644 | 35981 ft | 454 kts | 308° |
| 2026-05-04 19:06 | 49.52994 | 2.31362 | 35990 ft | 455 kts | 308° |
| 2026-05-04 19:07 | 49.57184 | 2.24121 | 35999 ft | 456 kts | 308° |
| 2026-05-04 19:07 | 49.61402 | 2.16816 | 35992 ft | 456 kts | 309° |
| 2026-05-04 19:08 | 49.65623 | 2.09502 | 35985 ft | 456 kts | 309° |
| 2026-05-04 19:08 | 49.69843 | 2.02164 | 35978 ft | 456 kts | 309° |
| 2026-05-04 19:09 | 49.74049 | 1.94831 | 35975 ft | 456 kts | 309° |
| 2026-05-04 19:09 | 49.78259 | 1.87474 | 35972 ft | 456 kts | 309° |
| 2026-05-04 19:10 | 49.82464 | 1.80088 | 35985 ft | 457 kts | 309° |
| 2026-05-04 19:10 | 49.86673 | 1.72693 | 35976 ft | 458 kts | 309° |
| 2026-05-04 19:11 | 49.90874 | 1.65281 | 35971 ft | 458 kts | 309° |
| 2026-05-04 19:11 | 49.95060 | 1.57872 | 35981 ft | 458 kts | 308° |
| 2026-05-04 19:12 | 50.01794 | 1.47294 | 35986 ft | 461 kts | 316° |
| 2026-05-04 19:13 | 50.06643 | 1.40732 | 35992 ft | 461 kts | 316° |
| 2026-05-04 19:13 | 50.11476 | 1.34144 | 35997 ft | 461 kts | 316° |
| 2026-05-04 19:14 | 50.16297 | 1.27533 | 36004 ft | 461 kts | 316° |
| 2026-05-04 19:14 | 50.21118 | 1.20928 | 36005 ft | 461 kts | 316° |
| 2026-05-04 19:15 | 50.25855 | 1.14416 | 36000 ft | 461 kts | 316° |
| 2026-05-04 19:15 | 50.30677 | 1.07779 | 36004 ft | 461 kts | 316° |
| 2026-05-04 19:15 | 50.33098 | 1.04422 | 35722 ft | 469 kts | 316° |
| 2026-05-04 19:16 | 50.35541 | 1.01034 | 35210 ft | 467 kts | 316° |
| 2026-05-04 19:16 | 50.37975 | 0.97663 | 34725 ft | 464 kts | 316° |
| 2026-05-04 19:16 | 50.40379 | 0.94331 | 34249 ft | 460 kts | 315° |
| 2026-05-04 19:16 | 50.42768 | 0.91013 | 33752 ft | 457 kts | 315° |
| 2026-05-04 19:17 | 50.45148 | 0.87709 | 33219 ft | 455 kts | 316° |
| 2026-05-04 19:17 | 50.47531 | 0.84469 | 32662 ft | 452 kts | 317° |
| 2026-05-04 19:17 | 50.49898 | 0.81325 | 32139 ft | 450 kts | 317° |
| 2026-05-04 19:17 | 50.52319 | 0.78149 | 31609 ft | 447 kts | 318° |
| 2026-05-04 19:18 | 50.54679 | 0.75064 | 31104 ft | 444 kts | 318° |
| 2026-05-04 19:18 | 50.57034 | 0.71973 | 30602 ft | 441 kts | 318° |
| 2026-05-04 19:18 | 50.59375 | 0.68877 | 30112 ft | 438 kts | 317° |
| 2026-05-04 19:18 | 50.61717 | 0.65752 | 29534 ft | 435 kts | 317° |
| 2026-05-04 19:19 | 50.63983 | 0.62712 | 28969 ft | 432 kts | 317° |
| 2026-05-04 19:19 | 50.66258 | 0.59660 | 28413 ft | 429 kts | 317° |
| 2026-05-04 19:19 | 50.68518 | 0.56626 | 27869 ft | 426 kts | 317° |
| 2026-05-04 19:19 | 50.70038 | 0.54581 | 27511 ft | 427 kts | 317° |
| 2026-05-04 19:20 | 50.72302 | 0.51530 | 26983 ft | 426 kts | 317° |
| 2026-05-04 19:20 | 50.74542 | 0.48511 | 26466 ft | 423 kts | 317° |
| 2026-05-04 19:20 | 50.77497 | 0.44524 | 25807 ft | 420 kts | 317° |
| 2026-05-04 19:20 | 50.79712 | 0.41534 | 25303 ft | 418 kts | 317° |
| 2026-05-04 19:21 | 50.81208 | 0.39516 | 24969 ft | 416 kts | 317° |
| 2026-05-04 19:21 | 50.83402 | 0.36554 | 24483 ft | 414 kts | 317° |
| 2026-05-04 19:21 | 50.85595 | 0.33592 | 23981 ft | 412 kts | 317° |
| 2026-05-04 19:21 | 50.87749 | 0.30677 | 23479 ft | 408 kts | 317° |
| 2026-05-04 19:22 | 50.89892 | 0.27769 | 22899 ft | 404 kts | 317° |
| 2026-05-04 19:22 | 50.92015 | 0.24881 | 22327 ft | 399 kts | 318° |
| 2026-05-04 19:22 | 50.94114 | 0.22022 | 21766 ft | 395 kts | 318° |
| 2026-05-04 19:22 | 50.96160 | 0.19233 | 21224 ft | 391 kts | 318° |
| 2026-05-04 19:23 | 50.98217 | 0.16419 | 20687 ft | 390 kts | 318° |
| 2026-05-04 19:23 | 51.00278 | 0.13593 | 20155 ft | 393 kts | 318° |
| 2026-05-04 19:23 | 51.02403 | 0.10854 | 19633 ft | 393 kts | 324° |
| 2026-05-04 19:23 | 51.04646 | 0.08379 | 19182 ft | 391 kts | 324° |
| 2026-05-04 19:24 | 51.06948 | 0.05842 | 18998 ft | 415 kts | 324° |
| 2026-05-04 19:24 | 51.09365 | 0.03177 | 19005 ft | 431 kts | 325° |
| 2026-05-04 19:24 | 51.11860 | 0.00421 | 19013 ft | 436 kts | 324° |
| 2026-05-04 19:24 | 51.14343 | -0.02332 | 18992 ft | 436 kts | 325° |
| 2026-05-04 19:25 | 51.16841 | -0.05110 | 18754 ft | 436 kts | 325° |
| 2026-05-04 19:25 | 51.19316 | -0.07866 | 18423 ft | 433 kts | 325° |
| 2026-05-04 19:25 | 51.21779 | -0.10610 | 18057 ft | 431 kts | 325° |
| 2026-05-04 19:25 | 51.24233 | -0.13341 | 17685 ft | 429 kts | 325° |
| 2026-05-04 19:26 | 51.26707 | -0.16097 | 17303 ft | 426 kts | 325° |
| 2026-05-04 19:26 | 51.29134 | -0.18811 | 16942 ft | 423 kts | 325° |
| 2026-05-04 19:26 | 51.31772 | -0.21769 | 16535 ft | 420 kts | 325° |
| 2026-05-04 19:26 | 51.33956 | -0.24225 | 16227 ft | 418 kts | 324° |
| 2026-05-04 19:27 | 51.36325 | -0.26888 | 15995 ft | 415 kts | 324° |
| 2026-05-04 19:27 | 51.38778 | -0.29323 | 16037 ft | 415 kts | 335° |
| 2026-05-04 19:27 | 51.41530 | -0.30645 | 15881 ft | 412 kts | 352° |
| 2026-05-04 19:27 | 51.44378 | -0.31063 | 15282 ft | 408 kts | 356° |
| 2026-05-04 19:28 | 51.47200 | -0.31374 | 14726 ft | 406 kts | 356° |
| 2026-05-04 19:28 | 51.49991 | -0.31676 | 14198 ft | 402 kts | 356° |
| 2026-05-04 19:28 | 51.52791 | -0.31978 | 13659 ft | 398 kts | 356° |
| 2026-05-04 19:28 | 51.55541 | -0.32272 | 13112 ft | 395 kts | 356° |
| 2026-05-04 19:29 | 51.58276 | -0.32552 | 12578 ft | 393 kts | 356° |
| 2026-05-04 19:29 | 51.60964 | -0.32797 | 12079 ft | 389 kts | 356° |
| 2026-05-04 19:29 | 51.63660 | -0.33028 | 11599 ft | 387 kts | 356° |
| 2026-05-04 19:29 | 51.66340 | -0.33242 | 11094 ft | 384 kts | 356° |
| 2026-05-04 19:30 | 51.69000 | -0.33448 | 10656 ft | 382 kts | 356° |
| 2026-05-04 19:30 | 51.71646 | -0.33626 | 10239 ft | 376 kts | 355° |
| 2026-05-04 19:30 | 51.74213 | -0.33801 | 9815 ft | 361 kts | 356° |
| 2026-05-04 19:30 | 51.76619 | -0.33956 | 9525 ft | 329 kts | 356° |
| 2026-05-04 19:31 | 51.78780 | -0.34072 | 9284 ft | 301 kts | 356° |
| 2026-05-04 19:31 | 51.80825 | -0.34187 | 8995 ft | 291 kts | 356° |
| 2026-05-04 19:31 | 51.82826 | -0.34301 | 8671 ft | 285 kts | 356° |
| 2026-05-04 19:31 | 51.84796 | -0.34395 | 8334 ft | 282 kts | 356° |
| 2026-05-04 19:32 | 51.86756 | -0.34484 | 8004 ft | 280 kts | 356° |
| 2026-05-04 19:32 | 51.88698 | -0.34579 | 7663 ft | 278 kts | 356° |
| 2026-05-04 19:32 | 51.90622 | -0.34691 | 7305 ft | 276 kts | 353° |
| 2026-05-04 19:32 | 51.92420 | -0.35552 | 6968 ft | 267 kts | 326° |
| 2026-05-04 19:33 | 51.93713 | -0.37633 | 6621 ft | 262 kts | 298° |
| 2026-05-04 19:33 | 51.94213 | -0.40422 | 6264 ft | 259 kts | 272° |
| 2026-05-04 19:33 | 51.94168 | -0.43356 | 6039 ft | 259 kts | 266° |
| 2026-05-04 19:33 | 51.94043 | -0.46278 | 5811 ft | 261 kts | 266° |
| 2026-05-04 19:34 | 51.93908 | -0.49210 | 5514 ft | 261 kts | 264° |
| 2026-05-04 19:34 | 51.93396 | -0.51994 | 5208 ft | 260 kts | 240° |
| 2026-05-04 19:34 | 51.92343 | -0.54316 | 4909 ft | 251 kts | 232° |
| 2026-05-04 19:34 | 51.91252 | -0.56448 | 4686 ft | 240 kts | 232° |
| 2026-05-04 19:35 | 51.90190 | -0.58465 | 4439 ft | 232 kts | 230° |
| 2026-05-04 19:35 | 51.89138 | -0.60450 | 4274 ft | 231 kts | 231° |
| 2026-05-04 19:35 | 51.87869 | -0.62034 | 4144 ft | 235 kts | 202° |
| 2026-05-04 19:35 | 51.86253 | -0.62336 | 3919 ft | 238 kts | 169° |
| 2026-05-04 19:36 | 51.84762 | -0.61205 | 3408 ft | 243 kts | 134° |
| 2026-05-04 19:36 | 51.83967 | -0.58921 | 3124 ft | 229 kts | 98° |
| 2026-05-04 19:36 | 51.84036 | -0.56463 | 2862 ft | 213 kts | 72° |
| 2026-05-04 19:36 | 51.84427 | -0.54238 | 2591 ft | 199 kts | 71° |
| 2026-05-04 19:37 | 51.84794 | -0.52175 | 2373 ft | 182 kts | 71° |
| 2026-05-04 19:37 | 51.85119 | -0.50323 | 2117 ft | 161 kts | 71° |
| 2026-05-04 19:37 | 51.85409 | -0.48670 | 1840 ft | 150 kts | 71° |
| 2026-05-04 19:37 | 51.85692 | -0.47056 | 1622 ft | 145 kts | 71° |
| 2026-05-04 19:38 | 51.85964 | -0.45495 | 1466 ft | 144 kts | 72° |
| 2026-05-04 19:38 | 51.86232 | -0.43938 | 1249 ft | 145 kts | 71° |
| 2026-05-04 19:38 | 51.86507 | -0.42355 | 1024 ft | 146 kts | 72° |
| 2026-05-04 19:38 | 51.86774 | -0.40772 | 825 ft | 144 kts | 71° |
| 2026-05-04 19:39 | 51.87052 | -0.39221 | 651 ft | 146 kts | 72° |
| 2026-05-04 19:39 | 51.87323 | -0.37672 | 522 ft | 134 kts | 73° |
| 2026-05-04 19:39 | 51.87503 | -0.36622 | 526 ft | 65 kts | 74° |
| 2026-05-04 19:39 | 51.87589 | -0.36122 | 516 ft | 30 kts | 74° |
| 2026-05-04 19:40 | 51.87646 | -0.35916 | 516 ft | 14 kts | 23° |
| 2026-05-04 19:40 | 51.87724 | -0.35945 | 516 ft | 12 kts | 342° |
| 2026-05-04 19:40 | 51.87782 | -0.36041 | 517 ft | 12 kts | 281° |
| 2026-05-04 19:40 | 51.87767 | -0.36173 | 520 ft | 13 kts | 254° |
| 2026-05-04 19:41 | 51.87741 | -0.36321 | 518 ft | 14 kts | 254° |
| 2026-05-04 19:41 | 51.87713 | -0.36479 | 520 ft | 15 kts | 255° |
| 2026-05-04 19:41 | 51.87686 | -0.36641 | 521 ft | 15 kts | 254° |
| 2026-05-04 19:41 | 51.87662 | -0.36802 | 524 ft | 14 kts | 271° |
| 2026-05-04 19:42 | 51.87751 | -0.36891 | 517 ft | 19 kts | 342° |
| 2026-05-04 19:42 | 51.87894 | -0.36966 | 512 ft | 21 kts | 342° |
| 2026-05-04 19:42 | 51.87989 | -0.37026 | 512 ft | 12 kts | 322° |
| 2026-05-04 19:42 | 51.88034 | -0.37145 | 508 ft | 13 kts | 297° |
| 2026-05-04 19:43 | 51.88032 | -0.37225 | 508 ft | 5 kts | 211° |
| 2026-05-04 19:43 | 51.88007 | -0.37220 | 508 ft | 4 kts | 164° |
| 2026-05-04 19:43 | 51.87982 | -0.37207 | 508 ft | 2 kts | 162° |
| 2026-05-04 19:43 | 51.87981 | -0.37206 | 508 ft | 1 kts | 162° |